sensor_id;sensor_type;location;lat;lon;timestamp;P1;durP1;ratioP1;P2;durP2;ratioP2
21591;SDS011;10958;50.892;3.992;2024-03-23T00:54:04;16.92;;;5.78;;
21591;SDS011;10958;50.892;3.992;2024-03-23T00:56:33;16.75;;;6.18;;
21591;SDS011;10958;50.892;3.992;2024-03-23T00:59:03;18.00;;;6.22;;
21591;SDS011;10958;50.892;3.992;2024-03-23T01:01:29;18.35;;;6.05;;
21591;SDS011;10958;50.892;3.992;2024-03-23T01:04:05;20.45;;;6.22;;
21591;SDS011;10958;50.892;3.992;2024-03-23T01:06:36;22.20;;;6.60;;
21591;SDS011;10958;50.892;3.992;2024-03-23T01:09:02;15.57;;;6.25;;
21591;SDS011;10958;50.892;3.992;2024-03-23T01:11:38;18.80;;;6.80;;
21591;SDS011;10958;50.892;3.992;2024-03-23T01:14:07;22.05;;;7.20;;
21591;SDS011;10958;50.892;3.992;2024-03-23T01:16:33;20.50;;;7.40;;
21591;SDS011;10958;50.892;3.992;2024-03-23T01:18:59;19.73;;;7.82;;
21591;SDS011;10958;50.892;3.992;2024-03-23T01:21:25;20.83;;;7.35;;
21591;SDS011;10958;50.892;3.992;2024-03-23T01:24:11;24.13;;;8.55;;
21591;SDS011;10958;50.892;3.992;2024-03-23T01:26:44;25.88;;;8.55;;
21591;SDS011;10958;50.892;3.992;2024-03-23T01:29:12;22.45;;;8.93;;
21591;SDS011;10958;50.892;3.992;2024-03-23T01:31:41;21.10;;;8.50;;
21591;SDS011;10958;50.892;3.992;2024-03-23T01:34:10;18.10;;;9.10;;
21591;SDS011;10958;50.892;3.992;2024-03-23T01:36:36;30.17;;;9.45;;
21591;SDS011;10958;50.892;3.992;2024-03-23T01:39:08;19.20;;;8.15;;
21591;SDS011;10958;50.892;3.992;2024-03-23T01:41:45;15.32;;;7.88;;
21591;SDS011;10958;50.892;3.992;2024-03-23T01:44:16;22.77;;;9.05;;
21591;SDS011;10958;50.892;3.992;2024-03-23T01:46:42;20.40;;;8.88;;
21591;SDS011;10958;50.892;3.992;2024-03-23T01:49:09;22.73;;;9.80;;
21591;SDS011;10958;50.892;3.992;2024-03-23T01:51:37;27.48;;;9.75;;
21591;SDS011;10958;50.892;3.992;2024-03-23T01:54:07;24.75;;;9.05;;
21591;SDS011;10958;50.892;3.992;2024-03-23T01:56:40;23.55;;;8.88;;
21591;SDS011;10958;50.892;3.992;2024-03-23T01:59:18;19.10;;;9.00;;
21591;SDS011;10958;50.892;3.992;2024-03-23T02:01:53;24.33;;;9.63;;
21591;SDS011;10958;50.892;3.992;2024-03-23T02:04:21;17.77;;;8.98;;
21591;SDS011;10958;50.892;3.992;2024-03-23T02:07:05;22.90;;;8.60;;
21591;SDS011;10958;50.892;3.992;2024-03-23T02:09:35;28.45;;;9.75;;
21591;SDS011;10958;50.892;3.992;2024-03-23T02:12:04;23.92;;;9.75;;
21591;SDS011;10958;50.892;3.992;2024-03-23T02:14:30;25.33;;;9.00;;
21591;SDS011;10958;50.892;3.992;2024-03-23T02:16:55;22.02;;;8.75;;
21591;SDS011;10958;50.892;3.992;2024-03-23T02:19:21;22.70;;;9.10;;
21591;SDS011;10958;50.892;3.992;2024-03-23T02:21:47;18.05;;;8.63;;
21591;SDS011;10958;50.892;3.992;2024-03-23T02:24:13;21.33;;;8.63;;
21591;SDS011;10958;50.892;3.992;2024-03-23T02:26:44;25.17;;;9.32;;
21591;SDS011;10958;50.892;3.992;2024-03-23T02:29:13;20.55;;;8.57;;
21591;SDS011;10958;50.892;3.992;2024-03-23T02:31:39;24.48;;;8.45;;
21591;SDS011;10958;50.892;3.992;2024-03-23T02:34:05;22.65;;;8.02;;
21591;SDS011;10958;50.892;3.992;2024-03-23T02:36:31;19.75;;;8.70;;
21591;SDS011;10958;50.892;3.992;2024-03-23T02:39:02;17.67;;;8.13;;
21591;SDS011;10958;50.892;3.992;2024-03-23T02:41:30;19.65;;;8.50;;
21591;SDS011;10958;50.892;3.992;2024-03-23T02:43:56;20.77;;;7.88;;
21591;SDS011;10958;50.892;3.992;2024-03-23T02:46:27;21.50;;;8.20;;
21591;SDS011;10958;50.892;3.992;2024-03-23T02:48:55;15.05;;;7.55;;
21591;SDS011;10958;50.892;3.992;2024-03-23T02:51:41;17.27;;;6.88;;
21591;SDS011;10958;50.892;3.992;2024-03-23T02:54:10;15.95;;;6.45;;
21591;SDS011;10958;50.892;3.992;2024-03-23T02:56:38;21.60;;;6.88;;
21591;SDS011;10958;50.892;3.992;2024-03-23T02:59:09;16.55;;;7.28;;
21591;SDS011;10958;50.892;3.992;2024-03-23T03:01:35;16.05;;;6.65;;
21591;SDS011;10958;50.892;3.992;2024-03-23T03:04:04;15.30;;;6.15;;
21591;SDS011;10958;50.892;3.992;2024-03-23T03:06:33;16.20;;;5.68;;
21591;SDS011;10958;50.892;3.992;2024-03-23T03:09:18;13.55;;;5.78;;
21591;SDS011;10958;50.892;3.992;2024-03-23T03:11:49;19.70;;;6.40;;
21591;SDS011;10958;50.892;3.992;2024-03-23T03:14:18;15.75;;;5.72;;
21591;SDS011;10958;50.892;3.992;2024-03-23T03:16:44;16.10;;;5.80;;
21591;SDS011;10958;50.892;3.992;2024-03-23T03:19:22;15.63;;;6.32;;
21591;SDS011;10958;50.892;3.992;2024-03-23T03:21:47;20.60;;;6.47;;
21591;SDS011;10958;50.892;3.992;2024-03-23T03:24:22;16.67;;;5.70;;
21591;SDS011;10958;50.892;3.992;2024-03-23T03:26:51;17.80;;;6.60;;
21591;SDS011;10958;50.892;3.992;2024-03-23T03:29:20;20.00;;;6.18;;
21591;SDS011;10958;50.892;3.992;2024-03-23T03:31:46;21.90;;;6.72;;
21591;SDS011;10958;50.892;3.992;2024-03-23T03:34:11;16.50;;;6.30;;
21591;SDS011;10958;50.892;3.992;2024-03-23T03:36:40;18.87;;;7.00;;
21591;SDS011;10958;50.892;3.992;2024-03-23T03:39:08;15.18;;;7.00;;
21591;SDS011;10958;50.892;3.992;2024-03-23T03:41:35;19.50;;;6.30;;
21591;SDS011;10958;50.892;3.992;2024-03-23T03:44:00;16.40;;;6.43;;
21591;SDS011;10958;50.892;3.992;2024-03-23T03:46:30;11.15;;;6.30;;
21591;SDS011;10958;50.892;3.992;2024-03-23T03:49:09;21.85;;;6.55;;
21591;SDS011;10958;50.892;3.992;2024-03-23T03:51:35;15.23;;;6.28;;
21591;SDS011;10958;50.892;3.992;2024-03-23T03:54:01;16.05;;;6.15;;
21591;SDS011;10958;50.892;3.992;2024-03-23T03:56:27;16.55;;;6.60;;
21591;SDS011;10958;50.892;3.992;2024-03-23T03:58:55;17.67;;;6.00;;
21591;SDS011;10958;50.892;3.992;2024-03-23T04:01:23;16.70;;;5.70;;
21591;SDS011;10958;50.892;3.992;2024-03-23T04:03:51;17.75;;;5.63;;
21591;SDS011;10958;50.892;3.992;2024-03-23T04:06:20;17.07;;;6.17;;
21591;SDS011;10958;50.892;3.992;2024-03-23T04:11:19;15.30;;;6.07;;
21591;SDS011;10958;50.892;3.992;2024-03-23T04:13:48;16.30;;;5.85;;
21591;SDS011;10958;50.892;3.992;2024-03-23T04:16:24;16.17;;;5.90;;
21591;SDS011;10958;50.892;3.992;2024-03-23T04:18:51;15.68;;;5.60;;
21591;SDS011;10958;50.892;3.992;2024-03-23T04:21:26;12.90;;;5.88;;
21591;SDS011;10958;50.892;3.992;2024-03-23T04:24:01;14.80;;;5.70;;
21591;SDS011;10958;50.892;3.992;2024-03-23T04:26:27;13.98;;;6.00;;
21591;SDS011;10958;50.892;3.992;2024-03-23T04:28:55;17.38;;;5.30;;
21591;SDS011;10958;50.892;3.992;2024-03-23T04:31:21;13.88;;;5.18;;
21591;SDS011;10958;50.892;3.992;2024-03-23T04:33:50;12.25;;;5.50;;
21591;SDS011;10958;50.892;3.992;2024-03-23T04:36:19;13.07;;;5.63;;
21591;SDS011;10958;50.892;3.992;2024-03-23T04:39:03;17.80;;;5.50;;
21591;SDS011;10958;50.892;3.992;2024-03-23T04:41:39;13.13;;;5.55;;
21591;SDS011;10958;50.892;3.992;2024-03-23T04:44:05;13.77;;;5.28;;
21591;SDS011;10958;50.892;3.992;2024-03-23T04:46:31;9.98;;;4.90;;
21591;SDS011;10958;50.892;3.992;2024-03-23T04:49:00;9.65;;;4.20;;
21591;SDS011;10958;50.892;3.992;2024-03-23T04:51:34;12.52;;;3.95;;
21591;SDS011;10958;50.892;3.992;2024-03-23T04:54:06;14.82;;;4.47;;
21591;SDS011;10958;50.892;3.992;2024-03-23T04:56:34;12.00;;;4.07;;
21591;SDS011;10958;50.892;3.992;2024-03-23T04:59:03;18.48;;;4.07;;
21591;SDS011;10958;50.892;3.992;2024-03-23T05:01:30;13.10;;;3.20;;
21591;SDS011;10958;50.892;3.992;2024-03-23T05:03:59;12.70;;;3.88;;
21591;SDS011;10958;50.892;3.992;2024-03-23T05:06:25;13.73;;;4.05;;
21591;SDS011;10958;50.892;3.992;2024-03-23T05:08:53;16.63;;;3.35;;
21591;SDS011;10958;50.892;3.992;2024-03-23T05:11:19;10.40;;;2.93;;
21591;SDS011;10958;50.892;3.992;2024-03-23T05:13:45;10.75;;;2.70;;
21591;SDS011;10958;50.892;3.992;2024-03-23T05:16:11;12.57;;;3.05;;
21591;SDS011;10958;50.892;3.992;2024-03-23T05:18:37;10.68;;;2.75;;
21591;SDS011;10958;50.892;3.992;2024-03-23T05:21:03;12.18;;;2.63;;
21591;SDS011;10958;50.892;3.992;2024-03-23T05:23:29;20.13;;;3.10;;
21591;SDS011;10958;50.892;3.992;2024-03-23T05:25:55;15.38;;;2.70;;
21591;SDS011;10958;50.892;3.992;2024-03-23T05:28:23;11.15;;;2.47;;
21591;SDS011;10958;50.892;3.992;2024-03-23T05:30:55;9.95;;;2.78;;
21591;SDS011;10958;50.892;3.992;2024-03-23T05:33:26;12.07;;;2.17;;
21591;SDS011;10958;50.892;3.992;2024-03-23T05:35:58;8.65;;;1.83;;
21591;SDS011;10958;50.892;3.992;2024-03-23T05:38:28;9.50;;;2.53;;
21591;SDS011;10958;50.892;3.992;2024-03-23T05:40:59;18.27;;;2.83;;
21591;SDS011;10958;50.892;3.992;2024-03-23T05:43:28;13.15;;;2.50;;
21591;SDS011;10958;50.892;3.992;2024-03-23T05:46:00;11.90;;;2.30;;
21591;SDS011;10958;50.892;3.992;2024-03-23T05:48:33;12.50;;;2.97;;
21591;SDS011;10958;50.892;3.992;2024-03-23T05:51:07;13.77;;;2.42;;
21591;SDS011;10958;50.892;3.992;2024-03-23T05:53:34;17.30;;;2.70;;
21591;SDS011;10958;50.892;3.992;2024-03-23T05:56:06;13.25;;;2.40;;
21591;SDS011;10958;50.892;3.992;2024-03-23T05:58:32;12.75;;;2.10;;
21591;SDS011;10958;50.892;3.992;2024-03-23T06:01:03;11.13;;;2.67;;
21591;SDS011;10958;50.892;3.992;2024-03-23T06:03:32;9.90;;;2.85;;
21591;SDS011;10958;50.892;3.992;2024-03-23T06:06:14;8.13;;;2.50;;
21591;SDS011;10958;50.892;3.992;2024-03-23T06:08:49;12.55;;;2.83;;
21591;SDS011;10958;50.892;3.992;2024-03-23T06:11:15;10.18;;;2.55;;
21591;SDS011;10958;50.892;3.992;2024-03-23T06:13:41;13.10;;;2.63;;
21591;SDS011;10958;50.892;3.992;2024-03-23T06:16:07;14.77;;;2.50;;
21591;SDS011;10958;50.892;3.992;2024-03-23T06:18:54;15.77;;;3.20;;
21591;SDS011;10958;50.892;3.992;2024-03-23T06:21:28;13.52;;;2.92;;
21591;SDS011;10958;50.892;3.992;2024-03-23T06:24:07;13.55;;;2.30;;
21591;SDS011;10958;50.892;3.992;2024-03-23T06:26:55;14.55;;;2.40;;
21591;SDS011;10958;50.892;3.992;2024-03-23T06:29:26;11.82;;;2.88;;
21591;SDS011;10958;50.892;3.992;2024-03-23T06:31:54;17.23;;;3.00;;
21591;SDS011;10958;50.892;3.992;2024-03-23T06:34:23;9.68;;;1.95;;
21591;SDS011;10958;50.892;3.992;2024-03-23T06:36:49;12.93;;;2.60;;
21591;SDS011;10958;50.892;3.992;2024-03-23T06:39:18;13.07;;;2.95;;
21591;SDS011;10958;50.892;3.992;2024-03-23T06:41:58;7.75;;;1.77;;
21591;SDS011;10958;50.892;3.992;2024-03-23T06:44:40;4.75;;;1.88;;
21591;SDS011;10958;50.892;3.992;2024-03-23T06:47:16;9.02;;;1.80;;
21591;SDS011;10958;50.892;3.992;2024-03-23T06:49:42;8.02;;;1.90;;
21591;SDS011;10958;50.892;3.992;2024-03-23T06:52:13;12.43;;;2.78;;
21591;SDS011;10958;50.892;3.992;2024-03-23T06:54:39;12.80;;;2.80;;
21591;SDS011;10958;50.892;3.992;2024-03-23T06:57:10;17.92;;;2.85;;
21591;SDS011;10958;50.892;3.992;2024-03-23T06:59:37;13.18;;;2.55;;
21591;SDS011;10958;50.892;3.992;2024-03-23T07:02:06;12.15;;;2.20;;
21591;SDS011;10958;50.892;3.992;2024-03-23T07:04:39;13.07;;;2.67;;
21591;SDS011;10958;50.892;3.992;2024-03-23T07:07:07;11.98;;;2.90;;
21591;SDS011;10958;50.892;3.992;2024-03-23T07:09:45;12.30;;;2.90;;
21591;SDS011;10958;50.892;3.992;2024-03-23T07:12:14;13.88;;;3.25;;
21591;SDS011;10958;50.892;3.992;2024-03-23T07:14:40;14.63;;;2.30;;
21591;SDS011;10958;50.892;3.992;2024-03-23T07:17:18;8.57;;;1.90;;
21591;SDS011;10958;50.892;3.992;2024-03-23T07:19:46;13.40;;;2.37;;
21591;SDS011;10958;50.892;3.992;2024-03-23T07:22:24;10.52;;;2.17;;
21591;SDS011;10958;50.892;3.992;2024-03-23T07:25:00;7.30;;;2.47;;
21591;SDS011;10958;50.892;3.992;2024-03-23T07:27:26;7.50;;;2.35;;
21591;SDS011;10958;50.892;3.992;2024-03-23T07:29:55;10.77;;;2.05;;
21591;SDS011;10958;50.892;3.992;2024-03-23T07:32:29;10.85;;;2.28;;
21591;SDS011;10958;50.892;3.992;2024-03-23T07:35:02;9.48;;;2.08;;
21591;SDS011;10958;50.892;3.992;2024-03-23T07:37:36;7.82;;;1.80;;
21591;SDS011;10958;50.892;3.992;2024-03-23T07:40:02;11.80;;;2.10;;
21591;SDS011;10958;50.892;3.992;2024-03-23T07:42:31;9.85;;;2.08;;
21591;SDS011;10958;50.892;3.992;2024-03-23T07:45:04;11.95;;;2.65;;
21591;SDS011;10958;50.892;3.992;2024-03-23T07:47:39;8.73;;;2.17;;
21591;SDS011;10958;50.892;3.992;2024-03-23T07:50:10;7.22;;;1.90;;
21591;SDS011;10958;50.892;3.992;2024-03-23T07:52:47;8.50;;;2.15;;
21591;SDS011;10958;50.892;3.992;2024-03-23T07:55:15;8.40;;;2.45;;
21591;SDS011;10958;50.892;3.992;2024-03-23T07:57:41;6.03;;;1.48;;
21591;SDS011;10958;50.892;3.992;2024-03-23T08:00:12;9.70;;;1.80;;
21591;SDS011;10958;50.892;3.992;2024-03-23T08:02:41;8.40;;;2.28;;
21591;SDS011;10958;50.892;3.992;2024-03-23T08:05:10;8.75;;;2.13;;
21591;SDS011;10958;50.892;3.992;2024-03-23T08:07:36;8.15;;;1.52;;
21591;SDS011;10958;50.892;3.992;2024-03-23T08:10:10;6.07;;;1.85;;
21591;SDS011;10958;50.892;3.992;2024-03-23T08:12:45;8.82;;;2.42;;
21591;SDS011;10958;50.892;3.992;2024-03-23T08:15:11;8.27;;;1.83;;
21591;SDS011;10958;50.892;3.992;2024-03-23T08:17:40;11.52;;;2.00;;
21591;SDS011;10958;50.892;3.992;2024-03-23T08:20:06;5.53;;;1.42;;
21591;SDS011;10958;50.892;3.992;2024-03-23T08:25:03;10.57;;;2.13;;
21591;SDS011;10958;50.892;3.992;2024-03-23T08:27:32;8.07;;;1.83;;
21591;SDS011;10958;50.892;3.992;2024-03-23T08:30:04;9.20;;;2.50;;
21591;SDS011;10958;50.892;3.992;2024-03-23T08:32:39;9.90;;;1.50;;
21591;SDS011;10958;50.892;3.992;2024-03-23T08:35:10;6.75;;;1.45;;
21591;SDS011;10958;50.892;3.992;2024-03-23T08:37:43;10.68;;;2.10;;
21591;SDS011;10958;50.892;3.992;2024-03-23T08:40:11;8.80;;;2.25;;
21591;SDS011;10958;50.892;3.992;2024-03-23T08:42:40;8.10;;;1.55;;
21591;SDS011;10958;50.892;3.992;2024-03-23T08:45:28;10.75;;;2.30;;
21591;SDS011;10958;50.892;3.992;2024-03-23T08:47:57;9.98;;;2.00;;
21591;SDS011;10958;50.892;3.992;2024-03-23T08:50:23;8.85;;;2.13;;
21591;SDS011;10958;50.892;3.992;2024-03-23T08:52:50;12.20;;;2.22;;
21591;SDS011;10958;50.892;3.992;2024-03-23T08:55:19;9.30;;;2.33;;
21591;SDS011;10958;50.892;3.992;2024-03-23T08:57:47;8.40;;;2.03;;
21591;SDS011;10958;50.892;3.992;2024-03-23T09:00:13;7.88;;;2.20;;
21591;SDS011;10958;50.892;3.992;2024-03-23T09:02:42;13.63;;;2.20;;
21591;SDS011;10958;50.892;3.992;2024-03-23T09:05:10;8.65;;;1.98;;
21591;SDS011;10958;50.892;3.992;2024-03-23T09:07:37;7.80;;;1.70;;
21591;SDS011;10958;50.892;3.992;2024-03-23T09:10:07;5.25;;;1.98;;
21591;SDS011;10958;50.892;3.992;2024-03-23T09:12:36;7.78;;;2.15;;
21591;SDS011;10958;50.892;3.992;2024-03-23T09:15:02;5.60;;;2.47;;
21591;SDS011;10958;50.892;3.992;2024-03-23T09:17:31;10.32;;;2.20;;
21591;SDS011;10958;50.892;3.992;2024-03-23T09:19:57;7.80;;;2.20;;
21591;SDS011;10958;50.892;3.992;2024-03-23T09:22:22;12.05;;;2.88;;
21591;SDS011;10958;50.892;3.992;2024-03-23T09:24:50;8.88;;;2.47;;
21591;SDS011;10958;50.892;3.992;2024-03-23T09:27:16;8.73;;;2.47;;
21591;SDS011;10958;50.892;3.992;2024-03-23T09:29:41;9.93;;;2.55;;
21591;SDS011;10958;50.892;3.992;2024-03-23T09:32:07;10.48;;;2.17;;
21591;SDS011;10958;50.892;3.992;2024-03-23T09:34:35;3.78;;;1.85;;
21591;SDS011;10958;50.892;3.992;2024-03-23T09:37:03;6.95;;;2.13;;
21591;SDS011;10958;50.892;3.992;2024-03-23T09:39:31;10.30;;;2.17;;
21591;SDS011;10958;50.892;3.992;2024-03-23T09:41:57;5.97;;;2.20;;
21591;SDS011;10958;50.892;3.992;2024-03-23T09:44:23;7.22;;;1.77;;
21591;SDS011;10958;50.892;3.992;2024-03-23T09:46:54;9.07;;;2.72;;
21591;SDS011;10958;50.892;3.992;2024-03-23T09:51:51;9.13;;;2.22;;
21591;SDS011;10958;50.892;3.992;2024-03-23T09:54:20;10.27;;;2.30;;
21591;SDS011;10958;50.892;3.992;2024-03-23T09:56:47;7.97;;;2.60;;
21591;SDS011;10958;50.892;3.992;2024-03-23T09:59:15;10.52;;;2.83;;
21591;SDS011;10958;50.892;3.992;2024-03-23T10:01:44;10.93;;;2.80;;
21591;SDS011;10958;50.892;3.992;2024-03-23T10:04:35;7.73;;;2.20;;
21591;SDS011;10958;50.892;3.992;2024-03-23T10:07:14;8.30;;;2.60;;
21591;SDS011;10958;50.892;3.992;2024-03-23T10:09:46;7.57;;;2.63;;
21591;SDS011;10958;50.892;3.992;2024-03-23T10:12:23;7.90;;;1.90;;
21591;SDS011;10958;50.892;3.992;2024-03-23T10:14:54;5.72;;;2.00;;
21591;SDS011;10958;50.892;3.992;2024-03-23T10:17:28;5.65;;;2.13;;
21591;SDS011;10958;50.892;3.992;2024-03-23T10:19:55;9.23;;;1.57;;
21591;SDS011;10958;50.892;3.992;2024-03-23T10:22:22;7.75;;;2.45;;
21591;SDS011;10958;50.892;3.992;2024-03-23T10:24:54;7.30;;;2.05;;
21591;SDS011;10958;50.892;3.992;2024-03-23T10:27:41;7.22;;;1.80;;
21591;SDS011;10958;50.892;3.992;2024-03-23T10:30:30;6.03;;;1.92;;
21591;SDS011;10958;50.892;3.992;2024-03-23T10:33:11;6.72;;;2.45;;
21591;SDS011;10958;50.892;3.992;2024-03-23T10:35:37;11.05;;;1.90;;
21591;SDS011;10958;50.892;3.992;2024-03-23T10:38:08;7.07;;;1.55;;
21591;SDS011;10958;50.892;3.992;2024-03-23T10:40:38;7.65;;;1.77;;
21591;SDS011;10958;50.892;3.992;2024-03-23T10:43:04;6.05;;;1.27;;
21591;SDS011;10958;50.892;3.992;2024-03-23T10:45:31;6.05;;;1.33;;
21591;SDS011;10958;50.892;3.992;2024-03-23T10:47:57;5.47;;;1.27;;
21591;SDS011;10958;50.892;3.992;2024-03-23T10:50:23;6.50;;;1.20;;
21591;SDS011;10958;50.892;3.992;2024-03-23T10:52:49;6.70;;;1.23;;
21591;SDS011;10958;50.892;3.992;2024-03-23T10:55:18;7.63;;;1.20;;
21591;SDS011;10958;50.892;3.992;2024-03-23T10:57:52;6.68;;;1.50;;
21591;SDS011;10958;50.892;3.992;2024-03-23T11:03:34;7.45;;;1.60;;
21591;SDS011;10958;50.892;3.992;2024-03-23T11:06:01;4.22;;;1.27;;
21591;SDS011;10958;50.892;3.992;2024-03-23T11:11:17;8.23;;;1.42;;
21591;SDS011;10958;50.892;3.992;2024-03-23T11:13:44;5.97;;;1.30;;
21591;SDS011;10958;50.892;3.992;2024-03-23T11:16:13;7.28;;;1.65;;
21591;SDS011;10958;50.892;3.992;2024-03-23T11:18:39;7.63;;;1.20;;
21591;SDS011;10958;50.892;3.992;2024-03-23T11:21:06;6.57;;;1.30;;
21591;SDS011;10958;50.892;3.992;2024-03-23T11:23:32;9.50;;;1.67;;
21591;SDS011;10958;50.892;3.992;2024-03-23T11:25:58;5.10;;;1.23;;
21591;SDS011;10958;50.892;3.992;2024-03-23T11:28:23;5.97;;;1.13;;
21591;SDS011;10958;50.892;3.992;2024-03-23T11:30:49;5.65;;;0.93;;
21591;SDS011;10958;50.892;3.992;2024-03-23T11:33:20;4.82;;;0.95;;
21591;SDS011;10958;50.892;3.992;2024-03-23T11:35:46;4.80;;;0.80;;
21591;SDS011;10958;50.892;3.992;2024-03-23T11:38:12;6.70;;;1.05;;
21591;SDS011;10958;50.892;3.992;2024-03-23T11:40:40;4.97;;;0.98;;
21591;SDS011;10958;50.892;3.992;2024-03-23T11:43:08;4.22;;;1.50;;
21591;SDS011;10958;50.892;3.992;2024-03-23T11:45:46;6.97;;;1.13;;
21591;SDS011;10958;50.892;3.992;2024-03-23T11:50:43;4.60;;;0.85;;
21591;SDS011;10958;50.892;3.992;2024-03-23T11:53:20;9.55;;;0.77;;
21591;SDS011;10958;50.892;3.992;2024-03-23T11:55:51;3.08;;;0.70;;
21591;SDS011;10958;50.892;3.992;2024-03-23T11:58:23;3.65;;;0.70;;
21591;SDS011;10958;50.892;3.992;2024-03-23T12:03:22;3.55;;;1.15;;
21591;SDS011;10958;50.892;3.992;2024-03-23T12:05:53;2.95;;;0.98;;
21591;SDS011;10958;50.892;3.992;2024-03-23T12:11:11;6.78;;;1.20;;
21591;SDS011;10958;50.892;3.992;2024-03-23T12:13:44;5.30;;;1.40;;
21591;SDS011;10958;50.892;3.992;2024-03-23T12:16:16;5.22;;;1.50;;
21591;SDS011;10958;50.892;3.992;2024-03-23T12:18:46;7.38;;;1.40;;
21591;SDS011;10958;50.892;3.992;2024-03-23T12:21:18;10.00;;;1.80;;
21591;SDS011;10958;50.892;3.992;2024-03-23T12:23:44;4.68;;;1.05;;
21591;SDS011;10958;50.892;3.992;2024-03-23T12:26:14;4.60;;;1.30;;
21591;SDS011;10958;50.892;3.992;2024-03-23T12:28:43;10.15;;;1.45;;
21591;SDS011;10958;50.892;3.992;2024-03-23T12:31:12;5.10;;;1.10;;
21591;SDS011;10958;50.892;3.992;2024-03-23T12:33:42;7.93;;;1.08;;
21591;SDS011;10958;50.892;3.992;2024-03-23T12:36:18;6.47;;;1.40;;
21591;SDS011;10958;50.892;3.992;2024-03-23T12:38:44;6.32;;;1.10;;
21591;SDS011;10958;50.892;3.992;2024-03-23T12:41:10;8.98;;;1.70;;
21591;SDS011;10958;50.892;3.992;2024-03-23T12:43:36;5.50;;;1.35;;
21591;SDS011;10958;50.892;3.992;2024-03-23T12:46:02;5.38;;;1.05;;
21591;SDS011;10958;50.892;3.992;2024-03-23T12:48:34;5.57;;;1.02;;
21591;SDS011;10958;50.892;3.992;2024-03-23T12:51:06;6.55;;;1.30;;
21591;SDS011;10958;50.892;3.992;2024-03-23T12:53:37;6.97;;;1.20;;
21591;SDS011;10958;50.892;3.992;2024-03-23T12:56:11;8.52;;;1.08;;
21591;SDS011;10958;50.892;3.992;2024-03-23T12:58:40;7.88;;;1.17;;
21591;SDS011;10958;50.892;3.992;2024-03-23T13:01:06;5.25;;;1.05;;
21591;SDS011;10958;50.892;3.992;2024-03-23T13:03:32;7.70;;;2.05;;
21591;SDS011;10958;50.892;3.992;2024-03-23T13:05:58;5.28;;;1.10;;
21591;SDS011;10958;50.892;3.992;2024-03-23T13:08:26;6.75;;;1.33;;
21591;SDS011;10958;50.892;3.992;2024-03-23T13:10:54;8.15;;;2.55;;
21591;SDS011;10958;50.892;3.992;2024-03-23T13:13:28;7.25;;;1.05;;
21591;SDS011;10958;50.892;3.992;2024-03-23T13:15:54;7.45;;;1.55;;
21591;SDS011;10958;50.892;3.992;2024-03-23T13:18:20;7.10;;;1.63;;
21591;SDS011;10958;50.892;3.992;2024-03-23T13:20:48;6.07;;;1.27;;
21591;SDS011;10958;50.892;3.992;2024-03-23T13:23:19;10.88;;;1.67;;
21591;SDS011;10958;50.892;3.992;2024-03-23T13:25:57;3.65;;;0.90;;
21591;SDS011;10958;50.892;3.992;2024-03-23T13:28:23;5.05;;;1.10;;
21591;SDS011;10958;50.892;3.992;2024-03-23T13:30:58;5.50;;;0.82;;
21591;SDS011;10958;50.892;3.992;2024-03-23T13:36:01;7.78;;;1.08;;
21591;SDS011;10958;50.892;3.992;2024-03-23T13:38:28;2.97;;;0.90;;
21591;SDS011;10958;50.892;3.992;2024-03-23T13:40:55;4.97;;;0.90;;
21591;SDS011;10958;50.892;3.992;2024-03-23T13:43:22;6.72;;;1.00;;
21591;SDS011;10958;50.892;3.992;2024-03-23T13:45:49;7.30;;;1.40;;
21591;SDS011;10958;50.892;3.992;2024-03-23T13:50:56;3.35;;;0.90;;
21591;SDS011;10958;50.892;3.992;2024-03-23T13:53:25;2.60;;;1.02;;
21591;SDS011;10958;50.892;3.992;2024-03-23T13:55:51;6.93;;;1.50;;
21591;SDS011;10958;50.892;3.992;2024-03-23T13:58:19;5.15;;;1.10;;
21591;SDS011;10958;50.892;3.992;2024-03-23T14:00:45;4.60;;;1.23;;
21591;SDS011;10958;50.892;3.992;2024-03-23T14:03:11;5.30;;;1.15;;
21591;SDS011;10958;50.892;3.992;2024-03-23T14:05:37;6.72;;;1.40;;
21591;SDS011;10958;50.892;3.992;2024-03-23T14:08:06;3.53;;;0.85;;
21591;SDS011;10958;50.892;3.992;2024-03-23T14:10:32;8.88;;;1.50;;
21591;SDS011;10958;50.892;3.992;2024-03-23T14:12:58;3.80;;;1.08;;
21591;SDS011;10958;50.892;3.992;2024-03-23T14:15:32;11.15;;;4.45;;
21591;SDS011;10958;50.892;3.992;2024-03-23T14:17:58;3.92;;;1.10;;
21591;SDS011;10958;50.892;3.992;2024-03-23T14:20:25;5.00;;;1.45;;
21591;SDS011;10958;50.892;3.992;2024-03-23T14:22:51;7.55;;;1.70;;
21591;SDS011;10958;50.892;3.992;2024-03-23T14:25:25;4.45;;;0.90;;
21591;SDS011;10958;50.892;3.992;2024-03-23T14:27:54;7.72;;;1.20;;
21591;SDS011;10958;50.892;3.992;2024-03-23T14:30:20;5.88;;;1.85;;
21591;SDS011;10958;50.892;3.992;2024-03-23T14:32:48;5.70;;;0.80;;
21591;SDS011;10958;50.892;3.992;2024-03-23T14:35:13;6.82;;;1.15;;
21591;SDS011;10958;50.892;3.992;2024-03-23T14:37:41;9.25;;;1.95;;
21591;SDS011;10958;50.892;3.992;2024-03-23T14:40:07;6.55;;;1.00;;
21591;SDS011;10958;50.892;3.992;2024-03-23T14:42:33;8.77;;;1.25;;
21591;SDS011;10958;50.892;3.992;2024-03-23T14:44:59;5.35;;;1.10;;
21591;SDS011;10958;50.892;3.992;2024-03-23T14:47:25;5.88;;;1.48;;
21591;SDS011;10958;50.892;3.992;2024-03-23T14:49:50;9.70;;;1.20;;
21591;SDS011;10958;50.892;3.992;2024-03-23T14:52:19;5.22;;;1.17;;
21591;SDS011;10958;50.892;3.992;2024-03-23T14:54:47;7.53;;;1.30;;
21591;SDS011;10958;50.892;3.992;2024-03-23T14:57:13;6.30;;;1.33;;
21591;SDS011;10958;50.892;3.992;2024-03-23T14:59:41;7.45;;;1.38;;
21591;SDS011;10958;50.892;3.992;2024-03-23T15:02:07;8.20;;;1.70;;
21591;SDS011;10958;50.892;3.992;2024-03-23T15:04:33;7.15;;;1.70;;
21591;SDS011;10958;50.892;3.992;2024-03-23T15:06:59;8.73;;;1.83;;
21591;SDS011;10958;50.892;3.992;2024-03-23T15:09:25;6.80;;;1.55;;
21591;SDS011;10958;50.892;3.992;2024-03-23T15:11:51;9.43;;;1.65;;
21591;SDS011;10958;50.892;3.992;2024-03-23T15:14:16;4.75;;;1.30;;
21591;SDS011;10958;50.892;3.992;2024-03-23T15:16:42;4.30;;;1.17;;
21591;SDS011;10958;50.892;3.992;2024-03-23T15:19:08;4.50;;;1.10;;
21591;SDS011;10958;50.892;3.992;2024-03-23T15:21:34;7.53;;;1.27;;
21591;SDS011;10958;50.892;3.992;2024-03-23T15:24:02;8.63;;;2.20;;
21591;SDS011;10958;50.892;3.992;2024-03-23T15:26:30;5.03;;;1.10;;
21591;SDS011;10958;50.892;3.992;2024-03-23T15:28:56;4.60;;;1.10;;
21591;SDS011;10958;50.892;3.992;2024-03-23T15:31:21;5.88;;;1.08;;
21591;SDS011;10958;50.892;3.992;2024-03-23T15:33:47;5.05;;;1.70;;
21591;SDS011;10958;50.892;3.992;2024-03-23T15:36:14;5.43;;;1.08;;
21591;SDS011;10958;50.892;3.992;2024-03-23T15:38:39;5.13;;;1.35;;
21591;SDS011;10958;50.892;3.992;2024-03-23T15:41:08;4.20;;;0.82;;
21591;SDS011;10958;50.892;3.992;2024-03-23T15:43:34;3.35;;;0.70;;
21591;SDS011;10958;50.892;3.992;2024-03-23T15:46:00;3.58;;;0.93;;
21591;SDS011;10958;50.892;3.992;2024-03-23T15:48:33;5.60;;;1.45;;
21591;SDS011;10958;50.892;3.992;2024-03-23T15:51:04;5.85;;;1.15;;
21591;SDS011;10958;50.892;3.992;2024-03-23T15:53:32;6.97;;;1.20;;
21591;SDS011;10958;50.892;3.992;2024-03-23T15:55:59;3.97;;;1.10;;
21591;SDS011;10958;50.892;3.992;2024-03-23T15:58:26;2.72;;;0.70;;
21591;SDS011;10958;50.892;3.992;2024-03-23T16:01:00;4.57;;;1.00;;
21591;SDS011;10958;50.892;3.992;2024-03-23T16:03:27;6.60;;;1.33;;
21591;SDS011;10958;50.892;3.992;2024-03-23T16:05:58;6.43;;;1.00;;
21591;SDS011;10958;50.892;3.992;2024-03-23T16:08:28;4.78;;;1.30;;
21591;SDS011;10958;50.892;3.992;2024-03-23T16:11:00;8.48;;;1.33;;
21591;SDS011;10958;50.892;3.992;2024-03-23T16:13:29;5.78;;;0.90;;